createdAt,value
2022-09-29T00:01:18.343Z,3.03
2022-09-29T00:03:46.509Z,2.13
2022-09-29T00:06:18.688Z,2.42
2022-09-29T00:08:47.339Z,1.95
2022-09-29T00:13:46.043Z,1.67
2022-09-29T00:16:15.131Z,1.85
2022-09-29T00:18:43.423Z,1.85
2022-09-29T00:21:14.213Z,1.73
2022-09-29T00:23:42.412Z,1.90
2022-09-29T00:26:24.267Z,1.50
2022-09-29T00:28:57.510Z,1.58
2022-09-29T00:31:28.017Z,1.35
2022-09-29T00:33:56.735Z,1.23
2022-09-29T00:38:53.970Z,1.35
2022-09-29T00:41:25.722Z,1.33
2022-09-29T00:44:05.871Z,1.52
2022-09-29T00:46:38.222Z,1.45
2022-09-29T00:49:17.759Z,1.33
2022-09-29T00:51:54.544Z,1.20
2022-09-29T00:54:24.460Z,1.45
2022-09-29T00:56:52.720Z,1.10
2022-09-29T00:59:33.220Z,1.40
2022-09-29T01:02:01.574Z,1.08
2022-09-29T01:04:30.106Z,1.13
2022-09-29T01:06:59.646Z,0.57
2022-09-29T01:09:34.239Z,1.20
2022-09-29T01:12:03.082Z,0.88
2022-09-29T01:14:33.254Z,0.50
2022-09-29T01:17:01.963Z,0.60
2022-09-29T01:19:50.292Z,1.25
2022-09-29T01:22:18.400Z,0.63
2022-09-29T01:25:07.896Z,0.90
2022-09-29T01:28:03.635Z,0.60
2022-09-29T01:31:21.649Z,0.63
2022-09-29T01:34:13.735Z,0.73
2022-09-29T01:37:15.879Z,0.70
2022-09-29T01:40:06.819Z,0.73
2022-09-29T01:42:41.625Z,0.65
2022-09-29T01:45:42.640Z,0.68
2022-09-29T01:48:19.216Z,0.50
2022-09-29T01:50:51.705Z,1.10
2022-09-29T01:53:57.270Z,0.50
2022-09-29T01:56:37.492Z,0.50
2022-09-29T01:59:28.970Z,0.68
2022-09-29T02:02:03.357Z,0.40
2022-09-29T02:04:42.625Z,0.50
2022-09-29T02:07:41.832Z,0.65
2022-09-29T02:10:28.933Z,0.40
2022-09-29T02:12:59.891Z,0.45
2022-09-29T02:15:33.915Z,0.40
2022-09-29T02:18:08.871Z,0.43
2022-09-29T02:20:37.027Z,0.70
2022-09-29T02:23:05.351Z,0.50
2022-09-29T02:25:38.670Z,0.40
2022-09-29T02:28:08.472Z,0.50
2022-09-29T02:30:36.933Z,0.38
2022-09-29T02:33:05.082Z,0.30
2022-09-29T02:35:51.921Z,0.43
2022-09-29T02:38:36.300Z,0.47
2022-09-29T02:41:16.807Z,0.20
2022-09-29T02:44:21.710Z,0.52
2022-09-29T02:47:02.549Z,0.22
2022-09-29T02:49:51.109Z,0.35
2022-09-29T02:52:25.399Z,0.30
2022-09-29T02:55:01.965Z,0.20
2022-09-29T02:57:37.556Z,0.28
2022-09-29T03:00:15.824Z,0.43
2022-09-29T03:02:45.316Z,0.30
2022-09-29T03:05:16.820Z,0.43
2022-09-29T03:07:45.460Z,0.30
2022-09-29T03:10:16.443Z,0.40
2022-09-29T03:12:44.908Z,0.20
2022-09-29T03:15:13.167Z,0.30
2022-09-29T03:17:41.899Z,0.20
2022-09-29T03:20:10.649Z,0.38
2022-09-29T03:25:07.446Z,0.30
2022-09-29T03:27:35.635Z,0.30
2022-09-29T03:30:04.239Z,0.20
2022-09-29T03:35:00.434Z,0.20
2022-09-29T03:37:28.549Z,0.28
2022-09-29T03:39:56.752Z,0.20
2022-09-29T03:42:24.975Z,0.40
2022-09-29T03:44:53.213Z,0.20
2022-09-29T03:47:21.626Z,0.20
2022-09-29T03:49:49.904Z,0.60
2022-09-29T03:52:18.203Z,0.20
2022-09-29T03:54:46.231Z,0.10
2022-09-29T03:57:14.469Z,0.10
2022-09-29T03:59:45.568Z,0.20
2022-09-29T04:02:14.623Z,0.20
2022-09-29T04:04:42.889Z,0.40
2022-09-29T04:07:11.029Z,0.30
2022-09-29T04:09:39.345Z,0.20
2022-09-29T04:12:07.699Z,0.30
2022-09-29T04:14:35.931Z,0.20
2022-09-29T04:17:04.070Z,0.30
2022-09-29T04:19:32.188Z,0.20
2022-09-29T04:22:00.297Z,0.20
2022-09-29T04:24:28.715Z,0.47
2022-09-29T04:26:57.021Z,0.20
2022-09-29T04:29:25.087Z,0.20
2022-09-29T04:31:53.276Z,0.20
2022-09-29T04:34:21.546Z,0.30
2022-09-29T04:36:49.797Z,0.10
2022-09-29T04:39:17.943Z,0.25
2022-09-29T04:41:46.153Z,0.10
2022-09-29T04:44:14.325Z,0.20
2022-09-29T04:46:42.398Z,0.20
2022-09-29T04:49:10.686Z,0.10
2022-09-29T04:55:34.618Z,0.10
2022-09-29T04:58:04.918Z,0.28
2022-09-29T05:00:35.364Z,0.20
2022-09-29T05:03:05.555Z,0.40
2022-09-29T05:05:35.889Z,0.20
2022-09-29T05:08:06.391Z,0.20
2022-09-29T05:10:37.485Z,0.30
2022-09-29T05:13:07.548Z,0.20
2022-09-29T05:15:37.894Z,0.32
2022-09-29T05:18:08.050Z,0.10
2022-09-29T05:20:43.200Z,0.20
2022-09-29T05:23:20.898Z,0.20
2022-09-29T05:25:51.370Z,0.20
2022-09-29T05:28:21.409Z,0.20
2022-09-29T05:30:51.751Z,0.20
2022-09-29T05:33:22.117Z,0.10
2022-09-29T05:35:52.515Z,0.17
2022-09-29T05:38:22.599Z,0.10
2022-09-29T05:40:54.113Z,0.20
2022-09-29T05:43:24.286Z,0.10
2022-09-29T05:45:54.628Z,0.20
2022-09-29T05:48:25.027Z,0.17
2022-09-29T05:50:54.954Z,0.20
2022-09-29T05:53:25.584Z,0.15
2022-09-29T05:55:55.851Z,0.10
2022-09-29T05:58:25.971Z,0.28
2022-09-29T06:00:56.262Z,0.20
2022-09-29T06:03:26.676Z,0.20
2022-09-29T06:05:56.726Z,0.20
2022-09-29T06:08:27.090Z,0.30
2022-09-29T06:11:03.403Z,0.10
2022-09-29T06:13:34.009Z,0.20
2022-09-29T06:16:04.282Z,0.20
2022-09-29T06:18:34.668Z,0.20
2022-09-29T06:21:10.702Z,0.20
2022-09-29T06:23:41.088Z,0.22
2022-09-29T06:26:19.021Z,0.13
2022-09-29T06:28:51.936Z,0.22
2022-09-29T06:31:25.062Z,0.20
2022-09-29T06:33:58.294Z,0.30
2022-09-29T06:36:42.616Z,0.20
2022-09-29T06:39:15.522Z,0.15
2022-09-29T06:41:46.760Z,0.10
2022-09-29T06:44:17.298Z,0.10
2022-09-29T06:46:47.657Z,0.10
2022-09-29T06:49:18.000Z,0.20
2022-09-29T06:51:48.769Z,0.17
2022-09-29T06:54:22.990Z,0.10
2022-09-29T06:56:54.997Z,0.22
2022-09-29T06:59:25.578Z,0.10
2022-09-29T07:01:55.731Z,0.25
2022-09-29T07:04:26.837Z,0.20
2022-09-29T07:06:57.236Z,0.60
2022-09-29T07:09:27.355Z,0.20
2022-09-29T07:11:57.751Z,0.47
2022-09-29T07:14:27.963Z,0.40
2022-09-29T07:16:58.413Z,0.30
2022-09-29T07:19:28.534Z,0.40
2022-09-29T07:21:58.929Z,0.25
2022-09-29T07:24:29.006Z,0.30
2022-09-29T07:26:59.384Z,0.30
2022-09-29T07:29:29.884Z,0.20
2022-09-29T07:32:00.808Z,0.25
2022-09-29T07:34:31.164Z,0.30
2022-09-29T07:37:01.287Z,0.40
2022-09-29T07:39:31.661Z,0.20
2022-09-29T07:42:06.131Z,0.20
2022-09-29T07:44:38.955Z,0.30
2022-09-29T07:47:08.940Z,0.30
2022-09-29T07:49:39.410Z,0.20
2022-09-29T07:52:10.021Z,0.40
2022-09-29T07:54:40.500Z,0.38
2022-09-29T07:57:11.499Z,0.35
2022-09-29T07:59:48.395Z,0.40
2022-09-29T08:02:20.356Z,0.20
2022-09-29T08:04:53.901Z,0.20
2022-09-29T08:07:29.361Z,0.28
2022-09-29T08:10:12.002Z,0.38
2022-09-29T08:12:48.044Z,0.40
2022-09-29T08:15:20.784Z,0.30
2022-09-29T08:17:55.498Z,0.32
2022-09-29T08:20:26.414Z,0.20
2022-09-29T08:22:58.537Z,0.40
2022-09-29T08:25:34.501Z,0.20
2022-09-29T08:28:07.250Z,0.20
2022-09-29T08:30:38.857Z,0.25
2022-09-29T08:33:07.751Z,0.30
2022-09-29T08:35:35.819Z,0.20
2022-09-29T08:38:04.209Z,0.20
2022-09-29T08:40:32.829Z,0.20
2022-09-29T08:43:30.208Z,0.30
2022-09-29T08:46:05.805Z,0.38
2022-09-29T08:48:49.264Z,0.30
2022-09-29T08:51:37.896Z,0.77
2022-09-29T08:54:37.944Z,0.20
2022-09-29T08:57:14.296Z,0.22
2022-09-29T08:59:42.596Z,0.20
2022-09-29T09:02:41.847Z,0.17
2022-09-29T09:05:25.548Z,0.17
2022-09-29T09:08:04.345Z,0.10
2022-09-29T09:11:01.110Z,0.17
2022-09-29T09:14:05.922Z,0.20
2022-09-29T09:16:52.591Z,0.30
2022-09-29T09:19:54.343Z,0.10
2022-09-29T09:22:47.151Z,0.20
2022-09-29T09:25:27.739Z,0.40
2022-09-29T09:28:19.884Z,0.40
2022-09-29T09:31:06.624Z,0.20
2022-09-29T09:33:59.422Z,0.25
2022-09-29T09:36:41.181Z,0.20
2022-09-29T09:39:24.860Z,0.20
2022-09-29T09:41:55.711Z,0.20
2022-09-29T09:44:39.156Z,0.10
2022-09-29T09:47:25.978Z,0.10
2022-09-29T09:50:09.509Z,0.10
2022-09-29T09:52:49.866Z,0.10
2022-09-29T09:55:22.137Z,0.20
2022-09-29T09:58:19.116Z,0.10
2022-09-29T10:00:56.147Z,0.20
2022-09-29T10:03:27.724Z,0.20
2022-09-29T10:05:57.444Z,0.22
2022-09-29T10:08:35.167Z,0.13
2022-09-29T10:11:22.507Z,0.10
2022-09-29T10:13:59.839Z,0.20
2022-09-29T10:16:49.570Z,0.10
2022-09-29T10:19:24.173Z,0.20
2022-09-29T10:21:52.368Z,0.10
2022-09-29T10:24:28.043Z,0.20
2022-09-29T10:27:00.201Z,0.15
2022-09-29T10:29:43.656Z,0.20
2022-09-29T10:32:22.397Z,0.17
2022-09-29T10:37:25.381Z,0.10
2022-09-29T10:40:23.262Z,0.10
2022-09-29T10:42:52.104Z,0.20
2022-09-29T10:47:58.783Z,0.35
2022-09-29T10:50:37.446Z,0.20
2022-09-29T10:53:20.236Z,0.20
2022-09-29T10:55:54.412Z,0.20
2022-09-29T10:58:44.695Z,0.15
2022-09-29T11:01:20.847Z,0.20
2022-09-29T11:03:59.549Z,0.20
2022-09-29T11:09:29.605Z,0.20
2022-09-29T11:12:01.588Z,0.20
2022-09-29T11:14:37.626Z,0.30
2022-09-29T11:17:24.540Z,0.10
2022-09-29T11:19:54.824Z,0.13
2022-09-29T11:22:41.318Z,0.20
2022-09-29T11:25:16.259Z,0.30
2022-09-29T11:27:59.640Z,0.10
2022-09-29T11:30:43.082Z,0.20
2022-09-29T11:33:43.594Z,0.20
2022-09-29T11:36:28.756Z,0.10
2022-09-29T11:39:15.704Z,0.20
2022-09-29T11:42:20.958Z,0.20
2022-09-29T11:45:12.659Z,0.15
2022-09-29T11:48:21.702Z,0.22
2022-09-29T11:50:55.983Z,0.20
2022-09-29T11:54:00.154Z,0.10
2022-09-29T11:57:23.048Z,0.20
2022-09-29T12:00:06.005Z,0.20
2022-09-29T12:03:11.740Z,0.20
2022-09-29T12:06:05.783Z,0.20
2022-09-29T12:08:43.513Z,0.15
2022-09-29T12:11:50.956Z,0.10
2022-09-29T12:15:00.013Z,0.28
2022-09-29T12:17:33.406Z,0.20
2022-09-29T12:20:15.975Z,0.10
2022-09-29T12:22:49.408Z,0.10
2022-09-29T12:25:21.470Z,0.20
2022-09-29T12:27:51.760Z,0.10
2022-09-29T12:30:27.545Z,0.10
2022-09-29T12:33:03.009Z,0.20
2022-09-29T12:35:52.291Z,0.20
2022-09-29T12:38:30.848Z,0.17
2022-09-29T12:41:19.714Z,0.20
2022-09-29T12:44:01.896Z,0.15
2022-09-29T12:46:37.521Z,0.10
2022-09-29T12:49:33.911Z,0.10
2022-09-29T12:52:04.921Z,0.10
2022-09-29T12:54:38.475Z,0.52
2022-09-29T12:57:16.919Z,0.10
2022-09-29T12:59:53.936Z,0.10
2022-09-29T13:02:33.630Z,0.13
2022-09-29T13:05:23.608Z,0.10
2022-09-29T13:08:22.311Z,0.10
2022-09-29T13:11:41.312Z,0.13
2022-09-29T13:14:34.208Z,0.10
2022-09-29T13:17:24.372Z,0.10
2022-09-29T13:20:38.537Z,0.10
2022-09-29T13:23:36.865Z,0.10
2022-09-29T13:26:32.799Z,0.10
2022-09-29T13:29:05.743Z,0.10
2022-09-29T13:34:40.312Z,0.13
2022-09-29T13:37:17.392Z,0.10
2022-09-29T13:40:11.532Z,0.10
2022-09-29T13:42:46.097Z,0.10
2022-09-29T13:45:26.792Z,0.13
2022-09-29T13:48:02.258Z,0.10
2022-09-29T13:50:49.973Z,0.10
2022-09-29T13:55:54.536Z,0.22
2022-09-29T13:58:43.369Z,0.10
2022-09-29T14:01:13.754Z,0.10
2022-09-29T14:03:44.923Z,0.10
2022-09-29T14:06:40.354Z,0.10
2022-09-29T14:09:23.590Z,0.30
2022-09-29T14:11:53.503Z,0.10
2022-09-29T14:14:31.492Z,0.13
2022-09-29T14:17:02.853Z,0.10
2022-09-29T14:19:37.754Z,0.17
2022-09-29T14:22:32.201Z,0.10
2022-09-29T14:25:09.824Z,0.10
2022-09-29T14:27:56.556Z,0.20
2022-09-29T14:30:52.931Z,0.10
2022-09-29T14:33:26.097Z,0.10
2022-09-29T14:36:00.464Z,0.10
2022-09-29T14:38:30.887Z,0.10
2022-09-29T14:41:06.684Z,0.20
2022-09-29T14:43:48.789Z,0.20
2022-09-29T14:46:30.412Z,0.10
2022-09-29T14:49:31.994Z,0.10
2022-09-29T14:52:14.354Z,0.10
2022-09-29T14:55:00.251Z,0.20
2022-09-29T14:57:35.227Z,0.10
2022-09-29T15:00:03.693Z,0.20
2022-09-29T15:02:34.746Z,0.15
2022-09-29T15:05:14.423Z,0.10
2022-09-29T15:07:43.479Z,0.10
2022-09-29T15:10:26.359Z,0.13
2022-09-29T15:13:14.994Z,0.13
2022-09-29T15:15:47.273Z,0.10
2022-09-29T15:18:46.452Z,0.20
2022-09-29T15:22:02.596Z,0.10
2022-09-29T15:24:33.791Z,0.13
2022-09-29T15:27:04.892Z,0.20
2022-09-29T15:30:21.780Z,0.20
2022-09-29T15:32:51.949Z,0.10
2022-09-29T15:35:25.965Z,0.10
2022-09-29T15:38:15.911Z,0.20
2022-09-29T15:40:44.767Z,0.10
2022-09-29T15:43:24.325Z,0.10
2022-09-29T15:46:13.173Z,0.10
2022-09-29T15:48:41.510Z,0.10
2022-09-29T15:51:18.330Z,0.17
2022-09-29T15:53:46.940Z,0.20
2022-09-29T15:56:15.213Z,0.10
2022-09-29T15:58:45.422Z,0.25
2022-09-29T16:01:15.944Z,0.15
2022-09-29T16:03:53.559Z,0.17
2022-09-29T16:06:26.629Z,0.10
2022-09-29T16:08:59.707Z,0.20
2022-09-29T16:11:39.340Z,0.10
2022-09-29T16:14:25.939Z,0.10
2022-09-29T16:16:58.915Z,0.10
2022-09-29T16:19:33.837Z,0.10
2022-09-29T16:22:05.652Z,0.10
2022-09-29T16:28:42.541Z,0.22
2022-09-29T16:31:24.909Z,0.52
2022-09-29T16:33:57.676Z,0.17
2022-09-29T16:36:37.076Z,0.20
2022-09-29T16:39:08.802Z,0.10
2022-09-29T16:41:42.910Z,0.30
2022-09-29T16:44:33.670Z,0.32
2022-09-29T16:47:15.686Z,0.30
2022-09-29T16:49:55.630Z,0.45
2022-09-29T16:52:49.507Z,0.13
2022-09-29T16:55:29.707Z,0.30
2022-09-29T16:58:12.125Z,0.20
2022-09-29T17:00:45.004Z,0.20
2022-09-29T17:03:16.414Z,0.10
2022-09-29T17:05:57.819Z,0.63
2022-09-29T17:08:31.805Z,0.20
2022-09-29T17:11:01.102Z,0.30
2022-09-29T17:13:36.037Z,0.20
2022-09-29T17:16:07.417Z,0.20
2022-09-29T17:18:35.634Z,0.20
2022-09-29T17:25:11.612Z,0.20
2022-09-29T17:27:45.333Z,0.45
2022-09-29T17:30:22.895Z,0.20
2022-09-29T17:32:57.812Z,0.30
2022-09-29T17:35:32.477Z,0.20
2022-09-29T17:38:04.185Z,0.32
2022-09-29T17:40:46.667Z,0.10
2022-09-29T17:43:16.957Z,0.30
2022-09-29T17:45:47.229Z,0.30
2022-09-29T17:48:15.432Z,0.30
2022-09-29T17:50:55.072Z,0.10
2022-09-29T17:53:24.457Z,0.20
2022-09-29T17:55:54.750Z,0.17
2022-09-29T17:58:23.569Z,0.20
2022-09-29T18:00:54.074Z,0.20
2022-09-29T18:03:22.738Z,0.20
2022-09-29T18:05:54.230Z,0.30
2022-09-29T18:08:23.085Z,0.17
2022-09-29T18:10:55.616Z,0.20
2022-09-29T18:13:25.182Z,0.20
2022-09-29T18:15:53.653Z,0.30
2022-09-29T18:18:23.225Z,0.20
2022-09-29T18:20:51.658Z,0.20
2022-09-29T18:23:20.782Z,0.15
2022-09-29T18:25:51.110Z,0.63
2022-09-29T18:28:20.351Z,0.20
2022-09-29T18:30:58.484Z,0.30
2022-09-29T18:33:26.817Z,0.20
2022-09-29T18:35:55.470Z,0.20
2022-09-29T18:40:56.357Z,0.20
2022-09-29T18:43:26.057Z,0.20
2022-09-29T18:45:56.241Z,0.20
2022-09-29T18:48:24.783Z,0.20
2022-09-29T18:50:53.871Z,0.30
2022-09-29T18:53:23.063Z,0.30
2022-09-29T18:55:56.584Z,0.20
2022-09-29T18:58:24.976Z,0.30
2022-09-29T19:00:56.358Z,0.22
2022-09-29T19:03:27.089Z,0.40
2022-09-29T19:05:55.802Z,0.25
2022-09-29T19:08:24.167Z,0.43
2022-09-29T19:10:55.525Z,0.43
2022-09-29T19:13:23.677Z,0.47
2022-09-29T19:15:56.061Z,0.20
2022-09-29T19:18:25.657Z,0.40
2022-09-29T19:20:56.375Z,0.30
2022-09-29T19:23:26.002Z,0.40
2022-09-29T19:25:55.480Z,0.30
2022-09-29T19:28:23.961Z,0.32
2022-09-29T19:30:52.113Z,0.45
2022-09-29T19:33:22.507Z,0.22
2022-09-29T19:35:55.045Z,0.30
2022-09-29T19:38:23.641Z,0.50
2022-09-29T19:40:52.427Z,0.43
2022-09-29T19:45:48.575Z,0.30
2022-09-29T19:48:20.626Z,0.40
2022-09-29T19:50:49.962Z,0.40
2022-09-29T19:53:18.338Z,0.32
2022-09-29T19:55:46.662Z,0.20
2022-09-29T19:58:15.324Z,0.40
2022-09-29T20:00:43.423Z,0.30
2022-09-29T20:03:11.683Z,0.30
2022-09-29T20:05:40.321Z,0.38
2022-09-29T20:08:09.097Z,0.25
2022-09-29T20:13:05.151Z,0.47
2022-09-29T20:15:33.318Z,0.40
2022-09-29T20:18:01.618Z,0.50
2022-09-29T20:20:29.892Z,0.40
2022-09-29T20:22:58.098Z,0.30
2022-09-29T20:25:26.287Z,0.20
2022-09-29T20:31:59.165Z,0.35
2022-09-29T20:34:27.555Z,0.22
2022-09-29T20:36:55.731Z,0.60
2022-09-29T20:39:24.418Z,0.52
2022-09-29T20:41:54.590Z,0.20
2022-09-29T20:44:23.734Z,0.32
2022-09-29T20:46:53.033Z,0.40
2022-09-29T20:49:21.228Z,0.30
2022-09-29T20:56:05.461Z,0.28
2022-09-29T20:58:36.447Z,0.40
2022-09-29T21:01:10.623Z,0.20
2022-09-29T21:03:40.910Z,0.47
2022-09-29T21:06:11.588Z,0.20
2022-09-29T21:08:43.165Z,0.40
2022-09-29T21:11:13.716Z,0.30
2022-09-29T21:13:47.325Z,0.40
2022-09-29T21:16:17.549Z,0.30
2022-09-29T21:18:48.035Z,0.47
2022-09-29T21:21:18.483Z,0.40
2022-09-29T21:23:49.948Z,0.40
2022-09-29T21:26:22.689Z,0.60
2022-09-29T21:28:57.769Z,0.30
2022-09-29T21:31:32.001Z,0.32
2022-09-29T21:34:33.493Z,0.30
2022-09-29T21:37:04.835Z,0.20
2022-09-29T21:39:35.238Z,0.20
2022-09-29T21:42:05.408Z,0.30
2022-09-29T21:44:36.067Z,0.30
2022-09-29T21:47:06.135Z,0.35
2022-09-29T21:49:36.549Z,0.40
2022-09-29T21:52:06.689Z,0.30
2022-09-29T21:54:38.211Z,0.43
2022-09-29T21:57:08.314Z,0.20
2022-09-29T21:59:38.695Z,0.30
2022-09-29T22:02:08.916Z,0.30
2022-09-29T22:04:40.759Z,0.20
2022-09-29T22:07:11.176Z,0.30
2022-09-29T22:09:43.826Z,0.52
2022-09-29T22:12:15.309Z,0.40
2022-09-29T22:14:49.149Z,0.20
2022-09-29T22:17:19.661Z,0.28
2022-09-29T22:19:50.041Z,0.40
2022-09-29T22:22:20.822Z,0.30
2022-09-29T22:24:51.967Z,0.30
2022-09-29T22:27:22.328Z,0.25
2022-09-29T22:29:52.427Z,0.22
2022-09-29T22:32:23.168Z,0.20
2022-09-29T22:34:53.385Z,0.28
2022-09-29T22:37:26.496Z,0.20
2022-09-29T22:39:58.815Z,0.28
2022-09-29T22:42:29.230Z,0.20
2022-09-29T22:44:59.655Z,0.28
2022-09-29T22:47:29.818Z,0.40
2022-09-29T22:50:01.073Z,0.20
2022-09-29T22:52:31.137Z,0.25
2022-09-29T22:55:01.712Z,0.28
2022-09-29T22:57:31.937Z,0.20
2022-09-29T23:00:02.436Z,0.30
2022-09-29T23:02:32.826Z,0.20
2022-09-29T23:05:03.028Z,0.20
2022-09-29T23:07:33.576Z,0.13
2022-09-29T23:10:05.432Z,0.25
2022-09-29T23:12:38.668Z,0.20
2022-09-29T23:15:09.535Z,0.20
2022-09-29T23:17:39.929Z,0.20
2022-09-29T23:20:11.318Z,0.20
2022-09-29T23:22:42.042Z,0.40
2022-09-29T23:25:12.528Z,0.20
2022-09-29T23:27:42.994Z,0.30
2022-09-29T23:30:13.282Z,0.30
2022-09-29T23:32:44.005Z,0.20
2022-09-29T23:35:14.137Z,0.10
2022-09-29T23:37:44.595Z,0.30
2022-09-29T23:40:14.735Z,0.30
2022-09-29T23:42:46.366Z,0.30
2022-09-29T23:45:18.201Z,0.20
2022-09-29T23:47:48.695Z,0.20
2022-09-29T23:50:19.009Z,0.20
2022-09-29T23:52:49.478Z,0.20
2022-09-29T23:55:19.859Z,0.20
2022-09-29T23:57:49.959Z,0.20
